デンパサール の空港の天気 - METARとTAF

デンパサール国際空港 ( WADD / DPS ) - インドネシア バリ島デンパサール
飛行場実況気象(Metar)
観測時間05/26 09:00 WITA (05/26 01:00 UTC)
風向・風速北 2m/s
視程10km以上
天気現象
全天の4割程度の雲 雲底高度 490m
気温28℃
湿度89%
気圧1010hPa
METARWADD 260100Z 01004KT 320V050 9999 SCT016 28/26 Q1010 NOSIG
過去の天気等 Google飛行場航空写真 Wunderground天気予報

過去48時間のMETAR

飛行場予報(TAF)
発表時間: 5/26 07:00 WITA (5/25 23:00 UTC)
予報対象時間: 26日8時 WITA ~ 27日8時 WITA
風向・風速東南東 5m/s
視程10km以上
全天の4割程度の雲 雲底高度 490m
26日14時 WITA ~ 26日18時 WITA に一時的に
視程5000m
天気現象雷雨
少しの積乱雲 雲底高度 460m
全天の8割程度の雲 雲底高度 460m
TAF WADD 252300Z 2600/2700 11010KT 9999 SCT016
TEMPO 2606/2610 5000 TSRA FEW015CB BKN015